KIIY

Details ICAO KIIY
Name WASHINGTON WILKES CO
Region United States
Timezone America/New_York (UTC-5.0)
Plans Departing 0
Arriving 1
Stats Elevation 645 ft / 197 m (AMSL)
Location 33.779386° -82.815813°
Runways 1
Magnetic Variation 6.214° W
Sunrise 2017-12-18 12:32:05 UTC / 2017-12-18 07:32:05 Local
Sunset 2017-12-18 22:26:35 UTC / 2017-12-18 17:26:35 Local
Advertisement - Login to hide

Runways

ID Width Length Bearing (true) Bearing (mag) Surface Threshold Offset Overrun Length
13 75 ft / 23 m 4,019 ft / 1,225 m 126.17° 132.38° Asphalt 0 ft / 0 m 0 ft / 0 m
31 75 ft / 23 m 4,019 ft / 1,225 m 306.17° 312.38° Asphalt 0 ft / 0 m 0 ft / 0 m

Map

Weather


0- 5 10 15 20 25 30 35+ Temperature / ° C

Clouds and Precipitation
Forecast for 2017-12-19 00:00 UTC. Updated 2 hours ago

Ground ~20,000 ft ~40,000 ft Winds

METAR

KIIY 182040Z AUTO 25005KT 10SM CLR 18/12 A3014 RMK AO2 TSNO

TAF

Not found

Frequencies

Recorded 118.37 MHz AWOS 3
Approach 127.50 MHz ATLANTA APP/DEP
Unicom 122.70 MHz CTAF/UNICOM
Warning: Do not use this data for real-world aviation or navigation. No guarantee of current accuracy is given.